createdAt,value
2019-03-08T00:02:28.209Z,99469.31
2019-03-08T00:04:57.195Z,99472.38
2019-03-08T00:07:26.156Z,99478.66
2019-03-08T00:09:55.415Z,99480.50
2019-03-08T00:12:24.313Z,99478.87
2019-03-08T00:14:53.337Z,99481.53
2019-03-08T00:17:22.241Z,99487.48
2019-03-08T00:19:51.180Z,99484.59
2019-03-08T00:22:20.208Z,99485.23
2019-03-08T00:24:49.097Z,99500.83
2019-03-08T00:27:18.040Z,99496.52
2019-03-08T00:29:46.999Z,99501.05
2019-03-08T00:32:15.992Z,99504.54
2019-03-08T00:34:44.979Z,99505.57
2019-03-08T00:37:14.058Z,99503.20
2019-03-08T00:39:42.968Z,99507.60
2019-03-08T00:42:11.892Z,99512.03
2019-03-08T00:44:40.701Z,99520.64
2019-03-08T00:47:09.670Z,99520.63
2019-03-08T00:49:38.541Z,99525.97
2019-03-08T00:52:07.443Z,99518.47
2019-03-08T00:54:36.333Z,99526.08
2019-03-08T00:57:05.326Z,99526.47
2019-03-08T00:59:34.162Z,99525.87
2019-03-08T01:02:03.598Z,99527.92
2019-03-08T01:04:32.803Z,99532.31
2019-03-08T01:07:03.309Z,99535.13
2019-03-08T01:09:32.223Z,99530.99
2019-03-08T01:12:01.362Z,99529.67
2019-03-08T01:14:30.480Z,99535.95
2019-03-08T01:16:59.387Z,99533.47
2019-03-08T01:19:28.551Z,99539.96
2019-03-08T01:21:57.699Z,99539.84
2019-03-08T01:24:26.727Z,99546.64
2019-03-08T01:26:55.947Z,99542.61
2019-03-08T01:29:24.927Z,99556.48
2019-03-08T01:31:54.023Z,99553.81
2019-03-08T01:34:23.212Z,99554.28
2019-03-08T01:36:52.364Z,99566.94
2019-03-08T01:39:21.302Z,99562.12
2019-03-08T01:41:50.316Z,99559.35
2019-03-08T01:44:19.296Z,99565.72
2019-03-08T01:46:48.369Z,99563.36
2019-03-08T01:49:17.928Z,99576.84
2019-03-08T01:51:50.074Z,99584.02
2019-03-08T01:54:19.157Z,99585.14
2019-03-08T01:56:48.009Z,99593.66
2019-03-08T01:59:17.082Z,99589.16
2019-03-08T02:01:46.096Z,99588.13
2019-03-08T02:04:15.093Z,99584.86
2019-03-08T02:06:46.394Z,99600.26
2019-03-08T02:09:15.304Z,99599.97
2019-03-08T02:11:44.197Z,99600.78
2019-03-08T02:14:13.215Z,99600.08
2019-03-08T02:16:42.397Z,99601.50
2019-03-08T02:19:15.501Z,99615.98
2019-03-08T02:21:44.613Z,99601.50
2019-03-08T02:24:13.414Z,99599.86
2019-03-08T02:26:42.455Z,99584.44
2019-03-08T02:29:11.244Z,99594.31
2019-03-08T02:31:40.354Z,99604.78
2019-03-08T02:34:09.299Z,99601.48
2019-03-08T02:36:38.093Z,99608.66
2019-03-08T02:39:07.787Z,99605.17
2019-03-08T02:41:36.686Z,99599.09
2019-03-08T02:44:05.597Z,99610.29
2019-03-08T02:46:34.600Z,99613.17
2019-03-08T02:49:03.513Z,99607.72
2019-03-08T02:51:32.535Z,99610.30
2019-03-08T02:54:01.568Z,99615.13
2019-03-08T02:56:30.550Z,99619.10
2019-03-08T02:58:59.576Z,99612.34
2019-03-08T03:01:28.528Z,99607.22
2019-03-08T03:03:58.565Z,99621.88
2019-03-08T03:06:27.376Z,99625.14
2019-03-08T03:08:56.254Z,99625.02
2019-03-08T03:11:25.241Z,99633.99
2019-03-08T03:13:54.233Z,99631.79
2019-03-08T03:16:23.230Z,99632.17
2019-03-08T03:18:52.065Z,99636.05
2019-03-08T03:21:21.111Z,99637.59
2019-03-08T03:23:49.931Z,99634.41
2019-03-08T03:26:18.808Z,99634.41
2019-03-08T03:28:47.701Z,99640.53
2019-03-08T03:31:16.466Z,99641.25
2019-03-08T03:33:45.744Z,99628.83
2019-03-08T03:36:14.757Z,99634.41
2019-03-08T03:38:43.558Z,99626.23
2019-03-08T03:41:12.648Z,99629.45
2019-03-08T03:43:41.535Z,99636.91
2019-03-08T03:46:10.329Z,99627.61
2019-03-08T03:48:39.229Z,99629.31
2019-03-08T03:51:08.191Z,99628.94
2019-03-08T03:53:36.990Z,99627.22
2019-03-08T03:56:06.274Z,99623.94
2019-03-08T03:58:35.137Z,99623.80
2019-03-08T04:01:20.578Z,99627.80
2019-03-08T04:03:49.470Z,99633.75
2019-03-08T04:06:18.644Z,99637.50
2019-03-08T04:08:47.559Z,99622.37
2019-03-08T04:11:16.450Z,99619.02
2019-03-08T04:13:45.373Z,99623.84
2019-03-08T04:16:14.386Z,99620.94
2019-03-08T04:18:43.191Z,99617.59
2019-03-08T04:21:12.286Z,99629.07
2019-03-08T04:23:41.206Z,99619.06
2019-03-08T04:26:10.121Z,99625.48
2019-03-08T04:28:38.995Z,99625.87
2019-03-08T04:31:08.256Z,99628.88
2019-03-08T04:33:37.224Z,99631.54
2019-03-08T04:36:06.278Z,99636.53
2019-03-08T04:38:35.156Z,99642.08
2019-03-08T04:41:04.146Z,99647.44
2019-03-08T04:43:33.124Z,99645.42
2019-03-08T04:46:02.015Z,99641.33
2019-03-08T04:48:31.062Z,99652.95
2019-03-08T04:51:00.176Z,99661.95
2019-03-08T04:53:28.987Z,99650.80
2019-03-08T04:55:57.893Z,99664.23
2019-03-08T04:58:27.597Z,99669.88
2019-03-08T05:00:56.562Z,99674.25
2019-03-08T05:03:25.508Z,99676.48
2019-03-08T05:05:54.399Z,99671.90
2019-03-08T05:08:23.281Z,99677.64
2019-03-08T05:10:52.256Z,99707.48
2019-03-08T05:13:21.217Z,99678.95
2019-03-08T05:15:50.107Z,99694.13
2019-03-08T05:18:18.914Z,99700.40
2019-03-08T05:20:47.822Z,99704.33
2019-03-08T05:23:16.678Z,99704.95
2019-03-08T05:25:45.689Z,99699.84
2019-03-08T05:28:14.589Z,99721.09
2019-03-08T05:30:43.487Z,99707.62
2019-03-08T05:33:12.409Z,99722.66
2019-03-08T05:35:41.315Z,99716.98
2019-03-08T05:38:10.230Z,99710.06
2019-03-08T05:40:39.116Z,99714.45
2019-03-08T05:43:07.912Z,99717.98
2019-03-08T05:45:36.815Z,99728.19
2019-03-08T05:48:05.932Z,99740.86
2019-03-08T05:50:34.975Z,99752.50
2019-03-08T05:53:03.972Z,99751.65
2019-03-08T05:55:32.993Z,99756.81
2019-03-08T05:58:01.936Z,99751.48
2019-03-08T06:00:33.873Z,99700.76
2019-03-08T06:03:02.841Z,99760.81
2019-03-08T06:05:31.740Z,99756.62
2019-03-08T06:08:00.613Z,99760.25
2019-03-08T06:10:33.582Z,99772.98
2019-03-08T06:13:02.644Z,99778.66
2019-03-08T06:15:31.641Z,99780.05
2019-03-08T06:18:00.622Z,99778.31
2019-03-08T06:20:29.585Z,99782.00
2019-03-08T06:23:17.666Z,99796.36
2019-03-08T06:25:46.732Z,99792.88
2019-03-08T06:28:15.777Z,99799.55
2019-03-08T06:30:44.657Z,99808.22
2019-03-08T06:33:13.606Z,99814.89
2019-03-08T06:35:42.577Z,99818.63
2019-03-08T06:38:11.464Z,99826.84
2019-03-08T06:40:40.381Z,99831.88
2019-03-08T06:43:09.627Z,99843.41
2019-03-08T06:45:38.641Z,99843.11
2019-03-08T06:48:07.688Z,99846.70
2019-03-08T06:50:36.656Z,99859.90
2019-03-08T06:53:05.648Z,99860.75
2019-03-08T06:55:34.490Z,99866.97
2019-03-08T06:58:05.001Z,99869.52
2019-03-08T07:01:01.988Z,99873.94
2019-03-08T07:03:30.931Z,99873.16
2019-03-08T07:05:59.850Z,99891.50
2019-03-08T07:08:28.748Z,99898.17
2019-03-08T07:10:57.639Z,99902.43
2019-03-08T07:13:28.067Z,99900.13
2019-03-08T07:15:57.048Z,99920.41
2019-03-08T07:18:25.890Z,99925.84
2019-03-08T07:21:12.904Z,99930.16
2019-03-08T07:23:50.457Z,99924.82
2019-03-08T07:26:37.042Z,99938.22
2019-03-08T07:29:24.947Z,99939.24
2019-03-08T07:32:10.356Z,99945.41
2019-03-08T07:35:19.609Z,99953.94
2019-03-08T07:38:33.513Z,99953.58
2019-03-08T07:41:40.906Z,99949.72
2019-03-08T07:44:34.515Z,99960.39
2019-03-08T07:47:15.863Z,99965.94
2019-03-08T07:50:02.752Z,99970.87
2019-03-08T07:52:45.127Z,99975.84
2019-03-08T07:55:31.914Z,99981.40
2019-03-08T07:58:08.194Z,99983.70
2019-03-08T08:01:00.384Z,99988.86
2019-03-08T08:03:34.983Z,100003.02
2019-03-08T08:06:12.832Z,100006.73
2019-03-08T08:08:53.254Z,100001.94
2019-03-08T08:11:50.420Z,100021.11
2019-03-08T08:14:39.782Z,100020.46
2019-03-08T08:17:32.883Z,100025.68
2019-03-08T08:20:24.140Z,100020.40
2019-03-08T08:23:11.987Z,100049.09
2019-03-08T08:25:48.343Z,100040.45
2019-03-08T08:28:22.725Z,100043.12
2019-03-08T08:31:12.925Z,100052.48
2019-03-08T08:34:07.263Z,100053.20
2019-03-08T08:37:01.185Z,100064.40
2019-03-08T08:39:49.458Z,100069.69
2019-03-08T08:42:40.128Z,100069.12
2019-03-08T08:45:27.635Z,100084.53
2019-03-08T08:48:07.653Z,100089.62
2019-03-08T08:51:04.541Z,100090.70
2019-03-08T08:53:42.980Z,100095.73
2019-03-08T08:56:26.983Z,100100.67
2019-03-08T08:59:08.022Z,100101.50
2019-03-08T09:02:07.628Z,100104.37
2019-03-08T09:04:55.561Z,100104.45
2019-03-08T09:07:49.559Z,100118.88
2019-03-08T09:10:36.617Z,100123.97
2019-03-08T09:13:13.602Z,100122.52
2019-03-08T09:15:57.959Z,100140.70
2019-03-08T09:19:00.857Z,100155.52
2019-03-08T09:21:35.922Z,100143.01
2019-03-08T09:24:29.175Z,100147.28
2019-03-08T09:27:23.399Z,100149.17
2019-03-08T09:30:09.670Z,100162.95
2019-03-08T09:32:58.940Z,100161.30
2019-03-08T09:35:29.542Z,100164.72
2019-03-08T09:38:17.513Z,100168.56
2019-03-08T09:41:08.496Z,100186.91
2019-03-08T09:43:56.223Z,100183.88
2019-03-08T09:46:31.338Z,100180.58
2019-03-08T09:49:17.808Z,100184.35
2019-03-08T09:52:14.701Z,100201.28
2019-03-08T09:54:49.038Z,100193.14
2019-03-08T09:57:36.978Z,100199.38
2019-03-08T10:00:27.491Z,100213.33
2019-03-08T10:03:21.347Z,100224.17
2019-03-08T10:06:04.622Z,100208.85
2019-03-08T10:09:01.842Z,100223.81
2019-03-08T10:11:44.754Z,100230.00
2019-03-08T10:14:22.645Z,100251.49
2019-03-08T10:17:00.258Z,100264.64
2019-03-08T10:19:47.512Z,100259.69
2019-03-08T10:22:47.770Z,100253.53
2019-03-08T10:25:25.303Z,100271.16
2019-03-08T10:28:18.621Z,100285.84
2019-03-08T10:30:55.175Z,100287.02
2019-03-08T10:33:46.571Z,100280.27
2019-03-08T10:36:40.616Z,100285.40
2019-03-08T10:39:14.602Z,100280.78
2019-03-08T10:41:59.608Z,100276.11
2019-03-08T10:44:41.371Z,100275.24
2019-03-08T10:47:38.679Z,100278.95
2019-03-08T10:50:18.315Z,100287.17
2019-03-08T10:53:14.806Z,100286.87
2019-03-08T10:56:01.048Z,100296.03
2019-03-08T10:58:56.914Z,100301.95
2019-03-08T11:01:38.028Z,100309.16
2019-03-08T11:04:11.286Z,100316.48
2019-03-08T11:06:59.297Z,100322.14
2019-03-08T11:09:53.122Z,100327.91
2019-03-08T11:12:35.552Z,100337.89
2019-03-08T11:15:39.437Z,100337.04
2019-03-08T11:18:15.002Z,100339.91
2019-03-08T11:21:06.082Z,100344.66
2019-03-08T11:23:55.365Z,100347.94
2019-03-08T11:26:31.810Z,100349.17
2019-03-08T11:29:16.755Z,100349.12
2019-03-08T11:32:04.586Z,100354.50
2019-03-08T11:34:52.378Z,100352.42
2019-03-08T11:37:40.390Z,100315.36
2019-03-08T11:40:25.910Z,100354.85
2019-03-08T11:43:07.683Z,100370.28
2019-03-08T11:46:01.651Z,100361.04
2019-03-08T11:48:48.367Z,100365.50
2019-03-08T11:51:36.140Z,100360.89
2019-03-08T11:54:24.507Z,100360.23
2019-03-08T11:57:02.984Z,100365.36
2019-03-08T11:59:43.477Z,100371.05
2019-03-08T12:02:37.509Z,100393.16
2019-03-08T12:05:25.465Z,100379.19
2019-03-08T12:08:16.335Z,100373.12
2019-03-08T12:11:13.722Z,100384.36
2019-03-08T12:13:51.236Z,100382.14
2019-03-08T12:16:37.771Z,100380.73
2019-03-08T12:19:34.777Z,100388.60
2019-03-08T12:22:14.647Z,100396.70
2019-03-08T12:25:11.622Z,100399.80
2019-03-08T12:28:06.124Z,100392.66
2019-03-08T12:31:00.278Z,100413.14
2019-03-08T12:33:39.759Z,100404.22
2019-03-08T12:36:19.697Z,100412.72
2019-03-08T12:39:26.270Z,100417.77
2019-03-08T12:42:23.368Z,100421.59
2019-03-08T12:45:21.492Z,100410.85
2019-03-08T12:48:08.397Z,100406.08
2019-03-08T12:50:53.843Z,100411.64
2019-03-08T12:53:36.230Z,100417.22
2019-03-08T12:56:14.059Z,100418.70
2019-03-08T12:59:14.210Z,100411.62
2019-03-08T13:01:56.364Z,100417.50
2019-03-08T13:04:42.990Z,100421.83
2019-03-08T13:07:29.257Z,100411.82
2019-03-08T13:10:08.957Z,100409.45
2019-03-08T13:12:38.196Z,100412.75
2019-03-08T13:15:08.459Z,100420.85
2019-03-08T13:17:37.476Z,100442.31
2019-03-08T13:20:08.299Z,100414.48
2019-03-08T13:22:37.283Z,100424.20
2019-03-08T13:25:06.355Z,100421.00
2019-03-08T13:27:35.656Z,100423.89
2019-03-08T13:30:08.930Z,100419.35
2019-03-08T13:32:38.603Z,100433.38
2019-03-08T13:35:08.164Z,100415.56
2019-03-08T13:37:37.164Z,100419.94
2019-03-08T13:40:06.716Z,100392.55
2019-03-08T13:42:35.838Z,100423.24
2019-03-08T13:45:07.358Z,100436.06
2019-03-08T13:47:36.773Z,100426.85
2019-03-08T13:50:06.686Z,100444.11
2019-03-08T13:52:35.799Z,100439.67
2019-03-08T13:55:06.204Z,100428.40
2019-03-08T13:57:35.101Z,100439.16
2019-03-08T14:00:04.686Z,100441.95
2019-03-08T14:02:36.707Z,100442.73
2019-03-08T14:05:07.917Z,100448.91
2019-03-08T14:07:37.344Z,100444.55
2019-03-08T14:10:07.770Z,100432.12
2019-03-08T14:12:36.708Z,100409.55
2019-03-08T14:15:06.688Z,100443.66
2019-03-08T14:17:35.629Z,100441.28
2019-03-08T14:20:05.239Z,100443.58
2019-03-08T14:22:34.484Z,100445.73
2019-03-08T14:25:03.748Z,100451.75
2019-03-08T14:27:32.842Z,100445.05
2019-03-08T14:30:01.752Z,100442.16
2019-03-08T14:32:30.890Z,100440.98
2019-03-08T14:35:02.799Z,100434.66
2019-03-08T14:39:59.793Z,100437.15
2019-03-08T14:42:42.117Z,100436.66
2019-03-08T14:45:40.425Z,100433.55
2019-03-08T14:48:11.030Z,100429.48
2019-03-08T14:50:39.953Z,100430.91
2019-03-08T14:53:08.748Z,100435.17
2019-03-08T14:55:37.655Z,100427.91
2019-03-08T14:58:06.646Z,100424.05
2019-03-08T15:00:35.652Z,100417.27
2019-03-08T15:03:05.470Z,100445.66
2019-03-08T15:05:34.416Z,100437.22
2019-03-08T15:08:03.610Z,100444.69
2019-03-08T15:10:39.389Z,100441.59
2019-03-08T15:13:03.279Z,100430.70
2019-03-08T15:15:32.355Z,100438.10
2019-03-08T15:18:01.282Z,100433.55
2019-03-08T15:20:30.620Z,100430.78
2019-03-08T15:22:59.621Z,100427.25
2019-03-08T15:25:31.253Z,100437.08
2019-03-08T15:27:59.229Z,100443.27
2019-03-08T15:30:28.221Z,100449.02
2019-03-08T15:32:57.190Z,100445.28
2019-03-08T15:35:26.086Z,100447.69
2019-03-08T15:37:55.058Z,100446.63
2019-03-08T15:40:24.108Z,100438.01
2019-03-08T15:42:52.999Z,100433.41
2019-03-08T15:45:22.025Z,100446.13
2019-03-08T15:47:51.036Z,100431.64
2019-03-08T15:50:20.068Z,100429.41
2019-03-08T15:52:51.266Z,100443.59
2019-03-08T15:55:19.773Z,100448.31
2019-03-08T15:57:48.690Z,100451.17
2019-03-08T16:00:19.408Z,100458.73
2019-03-08T16:02:51.649Z,100456.69
2019-03-08T16:05:23.901Z,100453.27
2019-03-08T16:07:51.464Z,100459.91
2019-03-08T16:10:20.880Z,100447.47
2019-03-08T16:12:49.935Z,100464.44
2019-03-08T16:15:18.942Z,100460.17
2019-03-08T16:17:48.230Z,100470.06
2019-03-08T16:20:18.730Z,100466.11
2019-03-08T16:22:47.720Z,100461.22
2019-03-08T16:25:16.931Z,100467.68
2019-03-08T16:27:46.245Z,100474.14
2019-03-08T16:30:21.086Z,100479.59
2019-03-08T16:32:58.442Z,100480.69
2019-03-08T16:35:30.238Z,100496.20
2019-03-08T16:38:16.946Z,100486.77
2019-03-08T16:41:04.798Z,100490.11
2019-03-08T16:43:55.462Z,100492.59
2019-03-08T16:46:43.251Z,100496.49
2019-03-08T16:49:43.158Z,100504.22
2019-03-08T16:52:29.425Z,100494.35
2019-03-08T16:55:05.888Z,100488.59
2019-03-08T16:57:56.926Z,100488.80
2019-03-08T17:01:03.232Z,100507.94
2019-03-08T17:03:49.339Z,100513.14
2019-03-08T17:06:38.144Z,100522.05
2019-03-08T17:09:26.135Z,100524.53
2019-03-08T17:12:17.538Z,100511.87
2019-03-08T17:15:11.182Z,100514.70
2019-03-08T17:18:01.845Z,100518.61
2019-03-08T17:20:38.940Z,100468.43
2019-03-08T17:23:41.739Z,100511.01
2019-03-08T17:26:38.642Z,100522.69
2019-03-08T17:29:14.134Z,100520.45
2019-03-08T17:31:51.047Z,100520.74
2019-03-08T17:34:48.120Z,100512.19
2019-03-08T17:37:35.393Z,100513.55
2019-03-08T17:40:13.127Z,100508.65
2019-03-08T17:42:59.824Z,100519.02
2019-03-08T17:45:35.329Z,100514.70
2019-03-08T17:48:15.013Z,100516.86
2019-03-08T17:51:19.639Z,100532.36
2019-03-08T17:54:06.636Z,100525.45
2019-03-08T17:56:54.472Z,100525.70
2019-03-08T17:59:42.069Z,100537.06
2019-03-08T18:02:45.282Z,100514.09
2019-03-08T18:05:25.515Z,100520.97
2019-03-08T18:08:11.765Z,100526.28
2019-03-08T18:10:51.568Z,100515.30
2019-03-08T18:13:45.506Z,100518.27
2019-03-08T18:16:29.908Z,100514.57
2019-03-08T18:19:17.835Z,100513.58
2019-03-08T18:22:14.978Z,100513.58
2019-03-08T18:25:01.805Z,100517.88
2019-03-08T18:27:45.169Z,100510.14
2019-03-08T18:30:31.563Z,100518.58
2019-03-08T18:33:28.854Z,100526.47
2019-03-08T18:36:15.542Z,100518.00
2019-03-08T18:39:03.411Z,100518.25
2019-03-08T18:41:54.077Z,100516.95
2019-03-08T18:44:42.098Z,100529.83
2019-03-08T18:47:33.638Z,100521.75
2019-03-08T18:50:20.264Z,100532.84
2019-03-08T18:53:17.492Z,100527.91
2019-03-08T18:55:55.020Z,100537.91
2019-03-08T18:58:45.905Z,100536.59
2019-03-08T19:01:27.062Z,100536.14
2019-03-08T19:04:02.314Z,100533.28
2019-03-08T19:06:53.657Z,100535.95
2019-03-08T19:09:39.537Z,100535.82
2019-03-08T19:12:39.669Z,100539.34
2019-03-08T19:18:25.418Z,100545.38
2019-03-08T19:21:12.174Z,100542.23
2019-03-08T19:23:49.357Z,100482.66
2019-03-08T19:26:32.250Z,100547.78
2019-03-08T19:29:08.719Z,100552.53
2019-03-08T19:31:43.219Z,100547.72
2019-03-08T19:34:34.338Z,100551.92
2019-03-08T19:37:20.758Z,100556.23
2019-03-08T19:40:14.890Z,100552.88
2019-03-08T19:43:01.397Z,100566.52
2019-03-08T19:45:52.860Z,100561.48
2019-03-08T19:48:27.105Z,100558.76
2019-03-08T19:51:30.276Z,100549.41
2019-03-08T19:54:12.521Z,100558.44
2019-03-08T19:56:49.664Z,100558.25
2019-03-08T19:59:27.574Z,100568.11
2019-03-08T20:02:21.510Z,100560.73
2019-03-08T20:05:12.665Z,100570.25
2019-03-08T20:08:06.746Z,100560.60
2019-03-08T20:10:58.532Z,100567.47
2019-03-08T20:13:49.266Z,100552.89
2019-03-08T20:16:26.446Z,100559.29
2019-03-08T20:19:11.099Z,100546.84
2019-03-08T20:22:01.810Z,100549.19
2019-03-08T20:24:47.086Z,100548.17
2019-03-08T20:27:41.260Z,100546.84
2019-03-08T20:30:33.209Z,100542.26
2019-03-08T20:33:27.380Z,100536.55
2019-03-08T20:36:08.353Z,100541.63
2019-03-08T20:38:54.154Z,100537.51
2019-03-08T20:41:32.640Z,100534.31
2019-03-08T20:44:20.553Z,100537.76
2019-03-08T20:46:55.510Z,100533.58
2019-03-08T20:49:24.492Z,100532.57
2019-03-08T20:51:53.394Z,100529.36
2019-03-08T20:54:22.381Z,100530.72
2019-03-08T20:56:51.697Z,100532.23
2019-03-08T20:59:20.472Z,100534.09
2019-03-08T21:01:49.471Z,100529.39
2019-03-08T21:04:18.378Z,100533.28
2019-03-08T21:06:47.384Z,100526.09
2019-03-08T21:09:16.287Z,100523.11
2019-03-08T21:11:45.321Z,100523.73
2019-03-08T21:14:14.343Z,100520.76
2019-03-08T21:16:43.365Z,100522.16
2019-03-08T21:19:12.374Z,100521.14
2019-03-08T21:21:41.331Z,100516.19
2019-03-08T21:24:10.479Z,100516.19
2019-03-08T21:26:39.448Z,100523.23
2019-03-08T21:29:08.468Z,100526.91
2019-03-08T21:31:37.680Z,100527.28
2019-03-08T21:34:06.658Z,100520.88
2019-03-08T21:36:35.916Z,100526.23
2019-03-08T21:39:06.538Z,100475.07
2019-03-08T21:41:35.579Z,100519.66
2019-03-08T21:44:04.647Z,100520.66
2019-03-08T21:46:33.608Z,100515.66
2019-03-08T21:49:02.707Z,100514.47
2019-03-08T21:51:31.620Z,100510.52
2019-03-08T21:54:00.413Z,100504.75
2019-03-08T21:56:29.274Z,100507.41
2019-03-08T21:58:58.082Z,100507.50
2019-03-08T22:01:27.344Z,100506.60
2019-03-08T22:04:04.205Z,100508.14
2019-03-08T22:06:33.001Z,100499.39
2019-03-08T22:09:15.615Z,100505.03
2019-03-08T22:11:45.468Z,100501.67
2019-03-08T22:14:14.463Z,100496.31
2019-03-08T22:16:43.518Z,100493.02
2019-03-08T22:19:12.979Z,100486.41
2019-03-08T22:21:42.081Z,100474.59
2019-03-08T22:24:13.692Z,100472.36
2019-03-08T22:26:41.872Z,100467.69
2019-03-08T22:29:10.686Z,100457.93
2019-03-08T22:31:39.648Z,100464.21
2019-03-08T22:34:08.581Z,100450.77
2019-03-08T22:36:37.440Z,100445.81
2019-03-08T22:39:07.315Z,100444.16
2019-03-08T22:41:36.129Z,100440.91
2019-03-08T22:44:05.079Z,100436.30
2019-03-08T22:46:34.076Z,100442.14
2019-03-08T22:49:03.340Z,100438.06
2019-03-08T22:51:32.562Z,100427.76
2019-03-08T22:54:01.456Z,100440.60
2019-03-08T22:56:30.422Z,100433.82
2019-03-08T22:58:59.241Z,100430.45
2019-03-08T23:01:39.590Z,100433.31
2019-03-08T23:04:08.590Z,100431.63
2019-03-08T23:06:37.417Z,100422.10
2019-03-08T23:09:09.167Z,100421.67
2019-03-08T23:11:38.137Z,100413.69
2019-03-08T23:14:07.111Z,100412.80
2019-03-08T23:16:40.250Z,100407.70
2019-03-08T23:19:09.338Z,100401.98
2019-03-08T23:21:38.337Z,100398.68
2019-03-08T23:24:07.108Z,100399.28
2019-03-08T23:26:55.179Z,100389.97
2019-03-08T23:29:37.800Z,100389.78
2019-03-08T23:32:17.248Z,100389.63
2019-03-08T23:34:46.222Z,100377.92
2019-03-08T23:37:15.149Z,100372.39
2019-03-08T23:39:44.140Z,100369.17
2019-03-08T23:42:13.435Z,100366.73
2019-03-08T23:44:42.626Z,100367.88
2019-03-08T23:47:11.583Z,100367.14
2019-03-08T23:49:40.439Z,100363.73
2019-03-08T23:52:09.353Z,100359.03
2019-03-08T23:54:38.161Z,100370.70
2019-03-08T23:57:07.275Z,100367.64
2019-03-08T23:59:36.168Z,100368.59
